Airfield :
LOGIN :

Register | Disclaimer

   EN    FR    IT 

 










Legend :    VFR   Marginal VFR   IFR   Intensive IFR   Very Intensive IFR
Visi :
Ceiling :
>= 8 km
>= 3000ft
5 to 8 km
1000 to 3000 ft
1500m to 5 km
500 to 1000 ft
800 to 1500m
200 to 500 ft
< 800m
< 200 ft
Symbols :   Thunderstorms  Fog  Heavy snow  Heavy precipitations  Wind > 20 kt
SIGMETs :     Misc.  Thunderstorms  Icing  Turbulence  Mountain Waves  Volcanic Ashes






- Airport Elevation : 24 ft
- IATA code : FAO


LPFR - Faro

CURRENT METAR :
  • 202130Z 07005KT CAVOK 15/09 Q1022

EXPIRED METARs :
  • 202100Z 05003KT CAVOK 15/09 Q1022
  • 202030Z 03005KT CAVOK 16/09 Q1022
  • 202000Z 02006KT CAVOK 16/09 Q1022
  • 201930Z 02005KT CAVOK 16/09 Q1022
  • 201900Z 02004KT CAVOK 17/10 Q1021

TAF TAF LPFR
Valid from the 20 at 18:00 until the 21 at 18:00 UTC


201700Z 2018/2118 11010KT CAVOK
BECMG 2019/2022 07008KT
PROB30
TEMPO 2100/2108 9999 BKN012
BECMG 2111/2114 11010KT



MET'MAP, your aeronautical weather chart ! - Copyright ORBIFLY December 2007 - Disclaimer

ORBIFLY MET'MAP TEAM :

Programming & Development : Alexandra Zaïnal
Concept & original design : Baudouin d'Aumeries
Assistance for programming : Marc-Olivier Méhu
Technical & hardware support : Manuel Goepfert

Contact : metmap@orbifly.com




SOURCES & CREDITS :

   NOAA